sensor_id;sensor_type;location;lat;lon;timestamp;pressure;altitude;pressure_sealevel;temperature;humidity
57024;BME280;42916;54.346;18.562;2023-05-23T00:01:01;100415.02;;;10.73;84.98
57024;BME280;42916;54.346;18.562;2023-05-23T00:03:27;100411.45;;;10.72;84.93
57024;BME280;42916;54.346;18.562;2023-05-23T00:05:56;100415.84;;;10.69;85.08
57024;BME280;42916;54.346;18.562;2023-05-23T00:08:24;100414.96;;;10.63;85.18
57024;BME280;42916;54.346;18.562;2023-05-23T00:10:50;100407.52;;;10.59;85.31
57024;BME280;42916;54.346;18.562;2023-05-23T00:13:16;100405.80;;;10.56;85.37
57024;BME280;42916;54.346;18.562;2023-05-23T00:15:43;100406.16;;;10.54;85.36
57024;BME280;42916;54.346;18.562;2023-05-23T00:18:10;100399.64;;;10.50;85.26
57024;BME280;42916;54.346;18.562;2023-05-23T00:20:37;100402.92;;;10.47;85.46
57024;BME280;42916;54.346;18.562;2023-05-23T00:23:11;100405.33;;;10.44;85.71
57024;BME280;42916;54.346;18.562;2023-05-23T00:25:44;100403.55;;;10.41;85.53
57024;BME280;42916;54.346;18.562;2023-05-23T00:28:13;100395.36;;;10.38;85.81
57024;BME280;42916;54.346;18.562;2023-05-23T00:30:40;100393.63;;;10.34;85.78
57024;BME280;42916;54.346;18.562;2023-05-23T00:33:06;100393.50;;;10.30;86.11
57024;BME280;42916;54.346;18.562;2023-05-23T00:35:32;100389.08;;;10.28;86.33
57024;BME280;42916;54.346;18.562;2023-05-23T00:37:58;100390.84;;;10.27;86.37
57024;BME280;42916;54.346;18.562;2023-05-23T00:40:27;100383.15;;;10.25;86.35
57024;BME280;42916;54.346;18.562;2023-05-23T00:42:53;100380.58;;;10.23;86.60
57024;BME280;42916;54.346;18.562;2023-05-23T00:45:19;100378.48;;;10.24;86.97
57024;BME280;42916;54.346;18.562;2023-05-23T00:47:45;100382.23;;;10.24;86.72
57024;BME280;42916;54.346;18.562;2023-05-23T00:50:14;100377.45;;;10.21;86.92
57024;BME280;42916;54.346;18.562;2023-05-23T00:52:42;100376.08;;;10.15;86.81
57024;BME280;42916;54.346;18.562;2023-05-23T00:55:09;100375.57;;;10.09;87.18
57024;BME280;42916;54.346;18.562;2023-05-23T00:57:36;100372.02;;;10.03;87.18
57024;BME280;42916;54.346;18.562;2023-05-23T01:00:06;100372.04;;;10.00;87.21
57024;BME280;42916;54.346;18.562;2023-05-23T01:02:38;100370.85;;;9.97;87.34
57024;BME280;42916;54.346;18.562;2023-05-23T01:05:06;100373.06;;;9.96;87.87
57024;BME280;42916;54.346;18.562;2023-05-23T01:07:32;100372.48;;;9.96;87.86
57024;BME280;42916;54.346;18.562;2023-05-23T01:09:58;100369.86;;;9.93;87.62
57024;BME280;42916;54.346;18.562;2023-05-23T01:15:05;100363.34;;;9.87;88.31
57024;BME280;42916;54.346;18.562;2023-05-23T01:23:37;100361.79;;;9.73;88.79
57024;BME280;42916;54.346;18.562;2023-05-23T01:26:17;100362.45;;;9.70;89.04
57024;BME280;42916;54.346;18.562;2023-05-23T01:28:52;100355.47;;;9.68;89.27
57024;BME280;42916;54.346;18.562;2023-05-23T01:31:21;100360.33;;;9.66;89.26
57024;BME280;42916;54.346;18.562;2023-05-23T01:33:49;100355.25;;;9.64;89.49
57024;BME280;42916;54.346;18.562;2023-05-23T01:36:18;100356.20;;;9.63;89.19
57024;BME280;42916;54.346;18.562;2023-05-23T01:38:44;100356.78;;;9.61;89.49
57024;BME280;42916;54.346;18.562;2023-05-23T01:41:10;100355.70;;;9.59;89.82
57024;BME280;42916;54.346;18.562;2023-05-23T01:43:37;100352.53;;;9.56;89.62
57024;BME280;42916;54.346;18.562;2023-05-23T01:46:05;100348.89;;;9.52;90.02
57024;BME280;42916;54.346;18.562;2023-05-23T01:48:32;100348.14;;;9.46;90.34
57024;BME280;42916;54.346;18.562;2023-05-23T01:51:00;100346.74;;;9.42;90.68
57024;BME280;42916;54.346;18.562;2023-05-23T01:53:27;100347.92;;;9.42;90.69
57024;BME280;42916;54.346;18.562;2023-05-23T01:55:55;100341.39;;;9.41;90.96
57024;BME280;42916;54.346;18.562;2023-05-23T01:58:21;100341.89;;;9.41;91.03
57024;BME280;42916;54.346;18.562;2023-05-23T02:00:47;100342.33;;;9.42;91.21
57024;BME280;42916;54.346;18.562;2023-05-23T02:03:13;100343.30;;;9.42;90.83
57024;BME280;42916;54.346;18.562;2023-05-23T02:05:39;100343.16;;;9.43;90.91
57024;BME280;42916;54.346;18.562;2023-05-23T02:08:06;100343.23;;;9.40;91.03
57024;BME280;42916;54.346;18.562;2023-05-23T02:10:32;100338.73;;;9.37;91.03
57024;BME280;42916;54.346;18.562;2023-05-23T02:12:59;100340.13;;;9.33;91.48
57024;BME280;42916;54.346;18.562;2023-05-23T02:15:27;100339.85;;;9.29;91.60
57024;BME280;42916;54.346;18.562;2023-05-23T02:17:53;100343.20;;;9.28;91.65
57024;BME280;42916;54.346;18.562;2023-05-23T02:20:19;100340.73;;;9.26;91.65
57024;BME280;42916;54.346;18.562;2023-05-23T02:22:47;100342.08;;;9.25;91.78
57024;BME280;42916;54.346;18.562;2023-05-23T02:25:13;100339.37;;;9.26;92.03
57024;BME280;42916;54.346;18.562;2023-05-23T02:27:40;100338.88;;;9.29;91.93
57024;BME280;42916;54.346;18.562;2023-05-23T02:30:07;100336.77;;;9.30;91.98
57024;BME280;42916;54.346;18.562;2023-05-23T02:32:34;100332.64;;;9.29;91.88
57024;BME280;42916;54.346;18.562;2023-05-23T02:35:00;100331.73;;;9.31;92.02
57024;BME280;42916;54.346;18.562;2023-05-23T02:37:26;100335.88;;;9.35;92.12
57024;BME280;42916;54.346;18.562;2023-05-23T02:39:52;100331.78;;;9.36;92.17
57024;BME280;42916;54.346;18.562;2023-05-23T02:42:18;100333.00;;;9.39;91.93
57024;BME280;42916;54.346;18.562;2023-05-23T02:44:45;100336.36;;;9.42;91.87
57024;BME280;42916;54.346;18.562;2023-05-23T02:47:11;100333.53;;;9.45;91.65
57024;BME280;42916;54.346;18.562;2023-05-23T02:49:37;100326.13;;;9.44;91.40
57024;BME280;42916;54.346;18.562;2023-05-23T02:52:03;100323.64;;;9.41;91.62
57024;BME280;42916;54.346;18.562;2023-05-23T02:54:29;100325.84;;;9.43;91.74
57024;BME280;42916;54.346;18.562;2023-05-23T02:56:55;100324.77;;;9.48;91.92
57024;BME280;42916;54.346;18.562;2023-05-23T02:59:22;100316.95;;;9.52;92.21
57024;BME280;42916;54.346;18.562;2023-05-23T03:01:48;100317.02;;;9.54;92.15
57024;BME280;42916;54.346;18.562;2023-05-23T03:04:14;100321.40;;;9.59;92.21
57024;BME280;42916;54.346;18.562;2023-05-23T03:06:40;100321.98;;;9.66;92.04
57024;BME280;42916;54.346;18.562;2023-05-23T03:09:09;100316.75;;;9.69;92.25
57024;BME280;42916;54.346;18.562;2023-05-23T03:11:36;100313.13;;;9.71;91.89
57024;BME280;42916;54.346;18.562;2023-05-23T03:14:02;100310.36;;;9.75;91.85
57024;BME280;42916;54.346;18.562;2023-05-23T03:16:28;100306.81;;;9.78;91.95
57024;BME280;42916;54.346;18.562;2023-05-23T03:18:54;100309.31;;;9.81;91.82
57024;BME280;42916;54.346;18.562;2023-05-23T03:21:20;100310.45;;;9.87;91.82
57024;BME280;42916;54.346;18.562;2023-05-23T03:23:46;100307.09;;;9.91;91.87
57024;BME280;42916;54.346;18.562;2023-05-23T03:26:12;100312.27;;;9.96;91.82
57024;BME280;42916;54.346;18.562;2023-05-23T03:28:38;100309.21;;;10.01;91.91
57024;BME280;42916;54.346;18.562;2023-05-23T03:31:04;100306.11;;;10.05;92.11
57024;BME280;42916;54.346;18.562;2023-05-23T03:33:31;100304.20;;;10.09;92.05
57024;BME280;42916;54.346;18.562;2023-05-23T03:35:57;100305.39;;;10.14;91.77
57024;BME280;42916;54.346;18.562;2023-05-23T03:38:23;100305.81;;;10.22;91.54
57024;BME280;42916;54.346;18.562;2023-05-23T03:40:49;100304.19;;;10.31;91.60
57024;BME280;42916;54.346;18.562;2023-05-23T03:43:15;100304.98;;;10.40;91.77
57024;BME280;42916;54.346;18.562;2023-05-23T03:45:41;100300.99;;;10.48;91.75
57024;BME280;42916;54.346;18.562;2023-05-23T03:48:11;100300.50;;;10.59;91.48
57024;BME280;42916;54.346;18.562;2023-05-23T03:50:38;100294.20;;;10.67;91.36
57024;BME280;42916;54.346;18.562;2023-05-23T03:53:05;100289.83;;;10.76;91.22
57024;BME280;42916;54.346;18.562;2023-05-23T03:55:32;100286.45;;;10.86;91.32
57024;BME280;42916;54.346;18.562;2023-05-23T03:57:58;100289.45;;;10.98;91.38
57024;BME280;42916;54.346;18.562;2023-05-23T04:00:25;100284.91;;;11.09;91.27
57024;BME280;42916;54.346;18.562;2023-05-23T04:02:52;100284.26;;;11.24;91.03
57024;BME280;42916;54.346;18.562;2023-05-23T04:05:20;100282.17;;;11.40;90.82
57024;BME280;42916;54.346;18.562;2023-05-23T04:07:48;100287.87;;;11.56;90.51
57024;BME280;42916;54.346;18.562;2023-05-23T04:10:16;100286.70;;;11.71;90.25
57024;BME280;42916;54.346;18.562;2023-05-23T04:12:43;100282.94;;;11.84;90.00
57024;BME280;42916;54.346;18.562;2023-05-23T04:15:13;100279.75;;;11.99;89.82
57024;BME280;42916;54.346;18.562;2023-05-23T04:17:50;100278.10;;;12.14;89.50
57024;BME280;42916;54.346;18.562;2023-05-23T04:20:16;100277.09;;;12.27;89.34
57024;BME280;42916;54.346;18.562;2023-05-23T04:22:43;100273.90;;;12.40;88.93
57024;BME280;42916;54.346;18.562;2023-05-23T04:25:09;100269.98;;;12.51;88.69
57024;BME280;42916;54.346;18.562;2023-05-23T04:27:43;100272.02;;;12.64;88.39
57024;BME280;42916;54.346;18.562;2023-05-23T04:30:10;100274.64;;;12.76;88.07
57024;BME280;42916;54.346;18.562;2023-05-23T04:32:38;100273.70;;;12.88;87.85
57024;BME280;42916;54.346;18.562;2023-05-23T04:35:05;100271.35;;;13.00;87.52
57024;BME280;42916;54.346;18.562;2023-05-23T04:37:39;100271.07;;;13.13;87.40
57024;BME280;42916;54.346;18.562;2023-05-23T04:40:05;100272.08;;;13.28;87.10
57024;BME280;42916;54.346;18.562;2023-05-23T04:42:56;100265.61;;;13.46;86.88
57024;BME280;42916;54.346;18.562;2023-05-23T04:45:30;100265.95;;;13.61;86.57
57024;BME280;42916;54.346;18.562;2023-05-23T04:48:03;100266.22;;;13.77;86.31
57024;BME280;42916;54.346;18.562;2023-05-23T04:50:42;100265.44;;;13.92;86.35
57024;BME280;42916;54.346;18.562;2023-05-23T04:53:09;100262.58;;;14.05;85.54
57024;BME280;42916;54.346;18.562;2023-05-23T04:55:35;100257.27;;;14.18;85.42
57024;BME280;42916;54.346;18.562;2023-05-23T04:58:02;100259.80;;;14.33;84.58
57024;BME280;42916;54.346;18.562;2023-05-23T05:00:28;100258.48;;;14.49;84.33
57024;BME280;42916;54.346;18.562;2023-05-23T05:02:55;100261.45;;;14.66;83.95
57024;BME280;42916;54.346;18.562;2023-05-23T05:05:26;100261.95;;;14.83;83.47
57024;BME280;42916;54.346;18.562;2023-05-23T05:07:52;100265.09;;;15.01;83.28
57024;BME280;42916;54.346;18.562;2023-05-23T05:10:19;100263.76;;;15.16;82.91
57024;BME280;42916;54.346;18.562;2023-05-23T05:12:46;100262.86;;;15.28;82.46
57024;BME280;42916;54.346;18.562;2023-05-23T05:15:17;100255.61;;;15.39;82.14
57024;BME280;42916;54.346;18.562;2023-05-23T05:17:47;100263.38;;;15.51;81.50
57024;BME280;42916;54.346;18.562;2023-05-23T05:20:16;100260.66;;;15.62;81.23
57024;BME280;42916;54.346;18.562;2023-05-23T05:22:42;100263.45;;;15.72;80.84
57024;BME280;42916;54.346;18.562;2023-05-23T05:25:11;100260.14;;;15.80;80.37
57024;BME280;42916;54.346;18.562;2023-05-23T05:27:38;100261.35;;;15.90;79.38
57024;BME280;42916;54.346;18.562;2023-05-23T05:30:07;100259.80;;;15.98;78.77
57024;BME280;42916;54.346;18.562;2023-05-23T05:32:43;100261.94;;;16.08;78.15
57024;BME280;42916;54.346;18.562;2023-05-23T05:35:11;100261.94;;;16.15;77.50
57024;BME280;42916;54.346;18.562;2023-05-23T05:37:46;100261.70;;;16.25;76.69
57024;BME280;42916;54.346;18.562;2023-05-23T05:40:13;100254.14;;;16.35;76.14
57024;BME280;42916;54.346;18.562;2023-05-23T05:42:41;100250.63;;;16.45;75.76
57024;BME280;42916;54.346;18.562;2023-05-23T05:45:09;100247.65;;;16.57;75.12
57024;BME280;42916;54.346;18.562;2023-05-23T05:47:37;100250.34;;;16.70;74.65
57024;BME280;42916;54.346;18.562;2023-05-23T05:50:07;100244.58;;;16.84;74.10
57024;BME280;42916;54.346;18.562;2023-05-23T05:52:35;100245.76;;;17.00;73.38
57024;BME280;42916;54.346;18.562;2023-05-23T05:55:06;100241.63;;;17.15;72.60
57024;BME280;42916;54.346;18.562;2023-05-23T05:57:32;100246.98;;;17.31;72.00
57024;BME280;42916;54.346;18.562;2023-05-23T05:59:59;100243.54;;;17.47;71.70
57024;BME280;42916;54.346;18.562;2023-05-23T06:02:25;100242.27;;;17.63;71.13
57024;BME280;42916;54.346;18.562;2023-05-23T06:04:52;100241.73;;;17.79;70.32
57024;BME280;42916;54.346;18.562;2023-05-23T06:07:18;100240.98;;;17.95;69.80
57024;BME280;42916;54.346;18.562;2023-05-23T06:09:44;100240.48;;;18.09;69.43
57024;BME280;42916;54.346;18.562;2023-05-23T06:12:10;100238.90;;;18.22;68.17
57024;BME280;42916;54.346;18.562;2023-05-23T06:14:36;100240.00;;;18.32;67.45
57024;BME280;42916;54.346;18.562;2023-05-23T06:17:03;100240.88;;;18.41;66.98
57024;BME280;42916;54.346;18.562;2023-05-23T06:19:29;100233.77;;;18.51;66.98
57024;BME280;42916;54.346;18.562;2023-05-23T06:21:55;100237.89;;;18.60;67.17
57024;BME280;42916;54.346;18.562;2023-05-23T06:24:21;100235.93;;;18.69;66.99
57024;BME280;42916;54.346;18.562;2023-05-23T06:26:47;100229.58;;;18.73;66.50
57024;BME280;42916;54.346;18.562;2023-05-23T06:29:13;100232.95;;;18.79;66.03
57024;BME280;42916;54.346;18.562;2023-05-23T06:31:39;100231.45;;;18.85;65.67
57024;BME280;42916;54.346;18.562;2023-05-23T06:34:05;100229.27;;;18.93;65.45
57024;BME280;42916;54.346;18.562;2023-05-23T06:36:31;100237.27;;;18.99;65.37
57024;BME280;42916;54.346;18.562;2023-05-23T06:38:57;100235.43;;;19.04;65.63
57024;BME280;42916;54.346;18.562;2023-05-23T06:41:23;100231.56;;;19.09;65.26
57024;BME280;42916;54.346;18.562;2023-05-23T06:43:51;100230.39;;;19.15;65.23
57024;BME280;42916;54.346;18.562;2023-05-23T06:46:24;100230.77;;;19.24;65.01
57024;BME280;42916;54.346;18.562;2023-05-23T06:48:51;100229.14;;;19.33;64.75
57024;BME280;42916;54.346;18.562;2023-05-23T06:51:17;100231.72;;;19.44;63.96
57024;BME280;42916;54.346;18.562;2023-05-23T06:53:43;100231.70;;;19.55;63.45
57024;BME280;42916;54.346;18.562;2023-05-23T06:56:09;100230.06;;;19.67;62.94
57024;BME280;42916;54.346;18.562;2023-05-23T06:58:53;100226.36;;;19.81;62.56
57024;BME280;42916;54.346;18.562;2023-05-23T07:01:19;100226.73;;;19.96;62.12
57024;BME280;42916;54.346;18.562;2023-05-23T07:03:47;100226.48;;;20.11;61.55
57024;BME280;42916;54.346;18.562;2023-05-23T07:06:13;100223.86;;;20.25;61.26
57024;BME280;42916;54.346;18.562;2023-05-23T07:08:40;100227.29;;;20.37;61.11
57024;BME280;42916;54.346;18.562;2023-05-23T07:11:06;100227.41;;;20.52;60.76
57024;BME280;42916;54.346;18.562;2023-05-23T07:13:41;100223.39;;;20.64;60.21
57024;BME280;42916;54.346;18.562;2023-05-23T07:16:09;100224.64;;;20.75;59.48
57024;BME280;42916;54.346;18.562;2023-05-23T07:18:39;100223.45;;;20.87;58.76
57024;BME280;42916;54.346;18.562;2023-05-23T07:21:05;100222.84;;;20.96;58.14
57024;BME280;42916;54.346;18.562;2023-05-23T07:23:32;100222.07;;;21.03;57.80
57024;BME280;42916;54.346;18.562;2023-05-23T07:26:01;100221.79;;;21.08;56.72
57024;BME280;42916;54.346;18.562;2023-05-23T07:28:32;100219.25;;;21.10;56.24
57024;BME280;42916;54.346;18.562;2023-05-23T07:30:59;100218.73;;;21.15;56.20
57024;BME280;42916;54.346;18.562;2023-05-23T07:33:26;100217.66;;;21.25;55.72
57024;BME280;42916;54.346;18.562;2023-05-23T07:35:55;100209.40;;;21.33;54.02
57024;BME280;42916;54.346;18.562;2023-05-23T07:38:21;100211.83;;;21.42;53.43
57024;BME280;42916;54.346;18.562;2023-05-23T07:40:47;100216.05;;;21.53;52.18
57024;BME280;42916;54.346;18.562;2023-05-23T07:43:13;100213.91;;;21.60;50.62
57024;BME280;42916;54.346;18.562;2023-05-23T07:45:40;100215.77;;;21.62;49.12
57024;BME280;42916;54.346;18.562;2023-05-23T07:48:07;100212.27;;;21.67;48.34
57024;BME280;42916;54.346;18.562;2023-05-23T07:50:33;100211.17;;;21.71;47.42
57024;BME280;42916;54.346;18.562;2023-05-23T07:53:00;100210.42;;;21.78;47.61
57024;BME280;42916;54.346;18.562;2023-05-23T07:55:28;100208.80;;;21.85;47.04
57024;BME280;42916;54.346;18.562;2023-05-23T07:57:54;100205.95;;;21.93;46.59
57024;BME280;42916;54.346;18.562;2023-05-23T08:00:21;100204.17;;;22.05;46.46
57024;BME280;42916;54.346;18.562;2023-05-23T08:02:49;100204.52;;;22.21;46.48
57024;BME280;42916;54.346;18.562;2023-05-23T08:05:19;100203.67;;;22.35;46.02
57024;BME280;42916;54.346;18.562;2023-05-23T08:07:48;100202.52;;;22.45;45.55
57024;BME280;42916;54.346;18.562;2023-05-23T08:10:14;100210.27;;;22.49;45.00
57024;BME280;42916;54.346;18.562;2023-05-23T08:12:41;100209.69;;;22.53;44.93
57024;BME280;42916;54.346;18.562;2023-05-23T08:15:13;100204.27;;;22.61;44.48
57024;BME280;42916;54.346;18.562;2023-05-23T08:17:42;100202.66;;;22.65;44.29
57024;BME280;42916;54.346;18.562;2023-05-23T08:20:10;100197.77;;;22.68;44.10
57024;BME280;42916;54.346;18.562;2023-05-23T08:22:37;100198.25;;;22.75;44.22
57024;BME280;42916;54.346;18.562;2023-05-23T08:25:04;100201.63;;;22.85;44.10
57024;BME280;42916;54.346;18.562;2023-05-23T08:27:32;100195.27;;;22.96;43.91
57024;BME280;42916;54.346;18.562;2023-05-23T08:30:03;100196.36;;;23.06;43.69
57024;BME280;42916;54.346;18.562;2023-05-23T08:32:30;100198.05;;;23.16;43.35
57024;BME280;42916;54.346;18.562;2023-05-23T08:34:56;100194.29;;;23.18;42.53
57024;BME280;42916;54.346;18.562;2023-05-23T08:37:22;100196.94;;;23.19;42.45
57024;BME280;42916;54.346;18.562;2023-05-23T08:39:49;100196.62;;;23.15;42.27
57024;BME280;42916;54.346;18.562;2023-05-23T08:42:35;100198.27;;;23.14;41.66
57024;BME280;42916;54.346;18.562;2023-05-23T08:45:03;100196.66;;;23.11;41.27
57024;BME280;42916;54.346;18.562;2023-05-23T08:47:33;100200.21;;;23.12;41.29
57024;BME280;42916;54.346;18.562;2023-05-23T08:50:05;100195.91;;;23.09;40.59
57024;BME280;42916;54.346;18.562;2023-05-23T08:52:34;100200.80;;;23.06;40.28
57024;BME280;42916;54.346;18.562;2023-05-23T08:55:03;100203.88;;;23.00;40.20
57024;BME280;42916;54.346;18.562;2023-05-23T08:57:29;100201.86;;;22.94;40.10
57024;BME280;42916;54.346;18.562;2023-05-23T09:00:00;100202.58;;;22.88;40.40
57024;BME280;42916;54.346;18.562;2023-05-23T09:02:30;100206.85;;;22.85;40.51
57024;BME280;42916;54.346;18.562;2023-05-23T09:05:06;100205.43;;;22.81;40.20
57024;BME280;42916;54.346;18.562;2023-05-23T09:07:32;100202.25;;;22.76;40.01
57024;BME280;42916;54.346;18.562;2023-05-23T09:09:59;100198.92;;;22.76;40.29
57024;BME280;42916;54.346;18.562;2023-05-23T09:12:26;100198.64;;;22.79;40.40
57024;BME280;42916;54.346;18.562;2023-05-23T09:14:53;100200.66;;;22.78;40.61
57024;BME280;42916;54.346;18.562;2023-05-23T09:17:20;100199.95;;;22.80;40.82
57024;BME280;42916;54.346;18.562;2023-05-23T09:19:47;100200.23;;;22.86;40.88
57024;BME280;42916;54.346;18.562;2023-05-23T09:22:32;100201.75;;;22.95;41.05
57024;BME280;42916;54.346;18.562;2023-05-23T09:25:10;100195.19;;;23.01;40.81
57024;BME280;42916;54.346;18.562;2023-05-23T09:27:38;100196.02;;;23.06;40.93
57024;BME280;42916;54.346;18.562;2023-05-23T09:30:09;100189.25;;;23.14;40.88
57024;BME280;42916;54.346;18.562;2023-05-23T09:32:36;100185.58;;;23.21;40.54
57024;BME280;42916;54.346;18.562;2023-05-23T09:35:05;100183.48;;;23.24;39.90
57024;BME280;42916;54.346;18.562;2023-05-23T09:37:33;100190.94;;;23.32;40.00
57024;BME280;42916;54.346;18.562;2023-05-23T09:40:05;100187.38;;;23.42;39.55
57024;BME280;42916;54.346;18.562;2023-05-23T09:42:32;100185.02;;;23.45;39.17
57024;BME280;42916;54.346;18.562;2023-05-23T09:44:59;100183.23;;;23.47;39.00
57024;BME280;42916;54.346;18.562;2023-05-23T09:47:25;100185.20;;;23.51;39.26
57024;BME280;42916;54.346;18.562;2023-05-23T09:49:52;100186.45;;;23.53;39.31
57024;BME280;42916;54.346;18.562;2023-05-23T09:52:19;100189.83;;;23.57;39.13
57024;BME280;42916;54.346;18.562;2023-05-23T09:54:46;100190.92;;;23.61;38.94
57024;BME280;42916;54.346;18.562;2023-05-23T09:57:13;100187.61;;;23.70;38.77
57024;BME280;42916;54.346;18.562;2023-05-23T09:59:44;100184.77;;;23.80;38.39
57024;BME280;42916;54.346;18.562;2023-05-23T10:02:11;100189.30;;;23.93;38.33
57024;BME280;42916;54.346;18.562;2023-05-23T10:04:41;100188.52;;;24.02;37.96
57024;BME280;42916;54.346;18.562;2023-05-23T10:07:17;100187.22;;;24.06;37.11
57024;BME280;42916;54.346;18.562;2023-05-23T10:09:50;100184.83;;;24.09;37.02
57024;BME280;42916;54.346;18.562;2023-05-23T10:12:41;100182.31;;;24.12;36.72
57024;BME280;42916;54.346;18.562;2023-05-23T10:15:12;100176.11;;;24.12;36.64
57024;BME280;42916;54.346;18.562;2023-05-23T10:17:56;100180.40;;;24.09;36.58
57024;BME280;42916;54.346;18.562;2023-05-23T10:20:30;100177.85;;;24.14;36.33
57024;BME280;42916;54.346;18.562;2023-05-23T10:22:58;100174.94;;;24.18;36.43
57024;BME280;42916;54.346;18.562;2023-05-23T10:25:24;100174.28;;;24.20;36.43
57024;BME280;42916;54.346;18.562;2023-05-23T10:27:54;100172.73;;;24.18;36.51
57024;BME280;42916;54.346;18.562;2023-05-23T10:30:27;100171.73;;;24.20;36.75
57024;BME280;42916;54.346;18.562;2023-05-23T10:32:56;100176.63;;;24.24;36.69
57024;BME280;42916;54.346;18.562;2023-05-23T10:38:08;100168.98;;;24.37;36.35
57024;BME280;42916;54.346;18.562;2023-05-23T10:46:19;100169.88;;;24.55;35.74
57024;BME280;42916;54.346;18.562;2023-05-23T10:48:46;100167.55;;;24.71;35.95
57024;BME280;42916;54.346;18.562;2023-05-23T10:51:13;100166.84;;;24.91;36.05
57024;BME280;42916;54.346;18.562;2023-05-23T10:53:42;100162.52;;;24.93;35.68
57024;BME280;42916;54.346;18.562;2023-05-23T10:56:19;100168.64;;;24.96;35.69
57024;BME280;42916;54.346;18.562;2023-05-23T10:58:55;100168.02;;;24.99;35.11
57024;BME280;42916;54.346;18.562;2023-05-23T11:01:23;100170.04;;;25.06;35.04
57024;BME280;42916;54.346;18.562;2023-05-23T11:03:52;100164.40;;;25.20;34.26
57024;BME280;42916;54.346;18.562;2023-05-23T11:06:38;100162.44;;;25.33;34.10
57024;BME280;42916;54.346;18.562;2023-05-23T11:09:18;100162.95;;;25.58;33.97
57024;BME280;42916;54.346;18.562;2023-05-23T11:12:04;100168.18;;;25.69;33.80
57024;BME280;42916;54.346;18.562;2023-05-23T11:17:14;100165.36;;;25.78;33.10
57024;BME280;42916;54.346;18.562;2023-05-23T11:20:03;100164.10;;;25.71;33.18
57024;BME280;42916;54.346;18.562;2023-05-23T11:22:32;100163.90;;;25.51;33.32
57024;BME280;42916;54.346;18.562;2023-05-23T11:25:02;100164.04;;;25.37;33.50
57024;BME280;42916;54.346;18.562;2023-05-23T11:27:39;100160.25;;;25.22;33.77
57024;BME280;42916;54.346;18.562;2023-05-23T11:30:14;100159.44;;;25.06;34.23
57024;BME280;42916;54.346;18.562;2023-05-23T11:32:49;100153.42;;;24.94;34.22
57024;BME280;42916;54.346;18.562;2023-05-23T11:35:16;100157.54;;;24.87;34.62
57024;BME280;42916;54.346;18.562;2023-05-23T11:37:43;100152.16;;;24.85;34.83
57024;BME280;42916;54.346;18.562;2023-05-23T11:42:52;100161.14;;;24.91;34.67
57024;BME280;42916;54.346;18.562;2023-05-23T11:45:19;100155.59;;;25.05;34.50
57024;BME280;42916;54.346;18.562;2023-05-23T11:47:46;100156.11;;;25.03;34.38
57024;BME280;42916;54.346;18.562;2023-05-23T11:50:12;100161.92;;;25.10;34.36
57024;BME280;42916;54.346;18.562;2023-05-23T11:52:38;100156.55;;;25.33;34.24
57024;BME280;42916;54.346;18.562;2023-05-23T11:55:06;100159.36;;;25.65;34.24
57024;BME280;42916;54.346;18.562;2023-05-23T11:57:32;100155.79;;;25.87;34.00
57024;BME280;42916;54.346;18.562;2023-05-23T11:59:58;100161.63;;;26.07;33.55
57024;BME280;42916;54.346;18.562;2023-05-23T12:02:27;100148.63;;;26.38;33.15
57024;BME280;42916;54.346;18.562;2023-05-23T12:04:53;100152.71;;;26.72;32.52
57024;BME280;42916;54.346;18.562;2023-05-23T12:07:19;100147.02;;;27.12;32.11
57024;BME280;42916;54.346;18.562;2023-05-23T12:09:45;100141.41;;;27.45;31.80
57024;BME280;42916;54.346;18.562;2023-05-23T12:12:14;100143.72;;;27.73;31.22
57024;BME280;42916;54.346;18.562;2023-05-23T12:14:41;100146.73;;;28.00;31.10
57024;BME280;42916;54.346;18.562;2023-05-23T12:17:12;100147.32;;;28.29;30.51
57024;BME280;42916;54.346;18.562;2023-05-23T12:19:39;100143.38;;;28.54;30.17
57024;BME280;42916;54.346;18.562;2023-05-23T12:22:10;100142.08;;;28.75;29.77
57024;BME280;42916;54.346;18.562;2023-05-23T12:24:44;100139.48;;;28.81;29.43
57024;BME280;42916;54.346;18.562;2023-05-23T12:27:11;100144.01;;;28.96;29.30
57024;BME280;42916;54.346;18.562;2023-05-23T12:29:37;100142.90;;;29.08;28.91
57024;BME280;42916;54.346;18.562;2023-05-23T12:32:05;100136.23;;;29.14;28.34
57024;BME280;42916;54.346;18.562;2023-05-23T12:34:32;100138.11;;;29.25;28.60
57024;BME280;42916;54.346;18.562;2023-05-23T12:37:00;100131.47;;;29.37;28.29
57024;BME280;42916;54.346;18.562;2023-05-23T12:39:29;100140.77;;;29.40;27.76
57024;BME280;42916;54.346;18.562;2023-05-23T12:42:06;100141.34;;;29.41;27.58
57024;BME280;42916;54.346;18.562;2023-05-23T12:44:33;100140.52;;;29.48;27.67
57024;BME280;42916;54.346;18.562;2023-05-23T12:46:59;100134.35;;;29.50;27.82
57024;BME280;42916;54.346;18.562;2023-05-23T12:49:25;100135.11;;;29.57;27.57
57024;BME280;42916;54.346;18.562;2023-05-23T12:51:51;100135.11;;;29.72;27.43
57024;BME280;42916;54.346;18.562;2023-05-23T12:54:17;100126.96;;;29.61;27.38
57024;BME280;42916;54.346;18.562;2023-05-23T12:56:43;100124.05;;;29.29;27.51
57024;BME280;42916;54.346;18.562;2023-05-23T12:59:09;100128.77;;;28.99;27.66
57024;BME280;42916;54.346;18.562;2023-05-23T13:01:35;100122.00;;;28.68;27.69
57024;BME280;42916;54.346;18.562;2023-05-23T13:04:02;100123.66;;;28.29;27.76
57024;BME280;42916;54.346;18.562;2023-05-23T13:06:28;100123.89;;;27.89;28.00
57024;BME280;42916;54.346;18.562;2023-05-23T13:08:54;100124.33;;;27.56;28.28
57024;BME280;42916;54.346;18.562;2023-05-23T13:11:20;100122.13;;;27.21;28.45